sensor_id;sensor_type;location;lat;lon;timestamp;temperature;humidity
4615;DHT22;2320;51.362;6.946;2023-04-25T00:01:14;7.80;99.90
4615;DHT22;2320;51.362;6.946;2023-04-25T00:03:40;7.90;99.90
4615;DHT22;2320;51.362;6.946;2023-04-25T00:06:06;8.00;99.90
4615;DHT22;2320;51.362;6.946;2023-04-25T00:08:31;8.00;99.90
4615;DHT22;2320;51.362;6.946;2023-04-25T00:10:57;8.00;99.90
4615;DHT22;2320;51.362;6.946;2023-04-25T00:13:23;8.10;99.90
4615;DHT22;2320;51.362;6.946;2023-04-25T00:15:48;8.10;99.90
4615;DHT22;2320;51.362;6.946;2023-04-25T00:18:14;8.20;99.90
4615;DHT22;2320;51.362;6.946;2023-04-25T00:20:39;8.30;99.90
4615;DHT22;2320;51.362;6.946;2023-04-25T00:23:05;8.20;99.90
4615;DHT22;2320;51.362;6.946;2023-04-25T00:25:31;8.20;99.90
4615;DHT22;2320;51.362;6.946;2023-04-25T00:27:56;8.30;99.90
4615;DHT22;2320;51.362;6.946;2023-04-25T00:30:22;8.40;99.90
4615;DHT22;2320;51.362;6.946;2023-04-25T00:32:47;8.30;99.90
4615;DHT22;2320;51.362;6.946;2023-04-25T00:35:14;8.40;99.90
4615;DHT22;2320;51.362;6.946;2023-04-25T00:37:39;8.50;99.90
4615;DHT22;2320;51.362;6.946;2023-04-25T00:40:05;8.40;99.90
4615;DHT22;2320;51.362;6.946;2023-04-25T00:42:31;8.40;99.90
4615;DHT22;2320;51.362;6.946;2023-04-25T00:44:58;8.50;99.90
4615;DHT22;2320;51.362;6.946;2023-04-25T00:47:23;8.50;99.90
4615;DHT22;2320;51.362;6.946;2023-04-25T00:49:49;8.40;99.90
4615;DHT22;2320;51.362;6.946;2023-04-25T00:52:14;8.50;99.90
4615;DHT22;2320;51.362;6.946;2023-04-25T00:54:40;8.50;99.90
4615;DHT22;2320;51.362;6.946;2023-04-25T00:57:05;8.30;99.90
4615;DHT22;2320;51.362;6.946;2023-04-25T00:59:31;8.30;99.90
4615;DHT22;2320;51.362;6.946;2023-04-25T01:01:56;8.40;99.90
4615;DHT22;2320;51.362;6.946;2023-04-25T01:04:23;8.50;99.90
4615;DHT22;2320;51.362;6.946;2023-04-25T01:06:48;8.50;99.90
4615;DHT22;2320;51.362;6.946;2023-04-25T01:09:14;8.50;99.90
4615;DHT22;2320;51.362;6.946;2023-04-25T01:11:40;8.50;99.90
4615;DHT22;2320;51.362;6.946;2023-04-25T01:14:05;8.50;99.90
4615;DHT22;2320;51.362;6.946;2023-04-25T01:16:31;8.40;99.90
4615;DHT22;2320;51.362;6.946;2023-04-25T01:18:56;8.50;99.90
4615;DHT22;2320;51.362;6.946;2023-04-25T01:21:22;8.60;99.90
4615;DHT22;2320;51.362;6.946;2023-04-25T01:23:48;8.50;99.90
4615;DHT22;2320;51.362;6.946;2023-04-25T01:26:13;8.70;99.90
4615;DHT22;2320;51.362;6.946;2023-04-25T01:28:39;8.60;99.90
4615;DHT22;2320;51.362;6.946;2023-04-25T01:31:08;8.70;99.90
4615;DHT22;2320;51.362;6.946;2023-04-25T01:33:33;8.80;99.90
4615;DHT22;2320;51.362;6.946;2023-04-25T01:35:59;8.80;99.90
4615;DHT22;2320;51.362;6.946;2023-04-25T01:38:25;8.70;99.90
4615;DHT22;2320;51.362;6.946;2023-04-25T01:40:51;8.60;99.90
4615;DHT22;2320;51.362;6.946;2023-04-25T01:43:17;8.60;99.90
4615;DHT22;2320;51.362;6.946;2023-04-25T01:45:43;8.60;99.90
4615;DHT22;2320;51.362;6.946;2023-04-25T01:48:09;8.60;99.90
4615;DHT22;2320;51.362;6.946;2023-04-25T01:50:34;8.60;99.90
4615;DHT22;2320;51.362;6.946;2023-04-25T01:53:00;8.60;99.90
4615;DHT22;2320;51.362;6.946;2023-04-25T01:55:27;8.60;99.90
4615;DHT22;2320;51.362;6.946;2023-04-25T01:57:52;8.50;99.90
4615;DHT22;2320;51.362;6.946;2023-04-25T02:00:18;8.60;99.90
4615;DHT22;2320;51.362;6.946;2023-04-25T02:02:43;8.50;99.90
4615;DHT22;2320;51.362;6.946;2023-04-25T02:05:09;8.40;99.90
4615;DHT22;2320;51.362;6.946;2023-04-25T02:07:34;8.40;99.90
4615;DHT22;2320;51.362;6.946;2023-04-25T02:10:00;8.30;99.90
4615;DHT22;2320;51.362;6.946;2023-04-25T02:12:26;8.30;99.90
4615;DHT22;2320;51.362;6.946;2023-04-25T02:14:52;8.40;99.90
4615;DHT22;2320;51.362;6.946;2023-04-25T02:17:18;8.30;99.90
4615;DHT22;2320;51.362;6.946;2023-04-25T02:19:43;8.50;99.90
4615;DHT22;2320;51.362;6.946;2023-04-25T02:22:10;8.40;99.90
4615;DHT22;2320;51.362;6.946;2023-04-25T02:24:35;8.50;99.90
4615;DHT22;2320;51.362;6.946;2023-04-25T02:27:01;8.50;99.90
4615;DHT22;2320;51.362;6.946;2023-04-25T02:29:26;8.60;99.90
4615;DHT22;2320;51.362;6.946;2023-04-25T02:31:52;8.60;99.90
4615;DHT22;2320;51.362;6.946;2023-04-25T02:34:17;8.70;99.90
4615;DHT22;2320;51.362;6.946;2023-04-25T02:36:43;8.60;99.90
4615;DHT22;2320;51.362;6.946;2023-04-25T02:39:08;8.60;99.90
4615;DHT22;2320;51.362;6.946;2023-04-25T02:41:34;8.70;99.90
4615;DHT22;2320;51.362;6.946;2023-04-25T02:43:59;8.70;99.90
4615;DHT22;2320;51.362;6.946;2023-04-25T02:46:25;8.70;99.90
4615;DHT22;2320;51.362;6.946;2023-04-25T02:48:50;8.70;99.90
4615;DHT22;2320;51.362;6.946;2023-04-25T02:51:16;8.70;99.90
4615;DHT22;2320;51.362;6.946;2023-04-25T02:53:41;8.60;99.90
4615;DHT22;2320;51.362;6.946;2023-04-25T02:56:07;8.60;99.90
4615;DHT22;2320;51.362;6.946;2023-04-25T02:58:32;8.40;99.90
4615;DHT22;2320;51.362;6.946;2023-04-25T03:00:58;8.40;99.90
4615;DHT22;2320;51.362;6.946;2023-04-25T03:03:23;8.40;99.90
4615;DHT22;2320;51.362;6.946;2023-04-25T03:05:49;8.40;99.90
4615;DHT22;2320;51.362;6.946;2023-04-25T03:08:16;8.40;99.90
4615;DHT22;2320;51.362;6.946;2023-04-25T03:10:41;8.40;99.90
4615;DHT22;2320;51.362;6.946;2023-04-25T03:13:07;8.50;99.90
4615;DHT22;2320;51.362;6.946;2023-04-25T03:15:32;8.40;99.90
4615;DHT22;2320;51.362;6.946;2023-04-25T03:17:58;8.40;99.90
4615;DHT22;2320;51.362;6.946;2023-04-25T03:20:23;8.40;99.90
4615;DHT22;2320;51.362;6.946;2023-04-25T03:22:49;8.50;99.90
4615;DHT22;2320;51.362;6.946;2023-04-25T03:25:14;8.50;99.90
4615;DHT22;2320;51.362;6.946;2023-04-25T03:27:40;8.50;99.90
4615;DHT22;2320;51.362;6.946;2023-04-25T03:30:05;8.50;99.90
4615;DHT22;2320;51.362;6.946;2023-04-25T03:32:31;8.40;99.90
4615;DHT22;2320;51.362;6.946;2023-04-25T03:34:57;8.40;99.90
4615;DHT22;2320;51.362;6.946;2023-04-25T03:37:22;8.40;99.90
4615;DHT22;2320;51.362;6.946;2023-04-25T03:39:48;8.40;99.90
4615;DHT22;2320;51.362;6.946;2023-04-25T03:42:13;8.30;99.90
4615;DHT22;2320;51.362;6.946;2023-04-25T03:44:39;8.40;99.90
4615;DHT22;2320;51.362;6.946;2023-04-25T03:47:05;8.30;99.90
4615;DHT22;2320;51.362;6.946;2023-04-25T03:49:32;8.30;99.90
4615;DHT22;2320;51.362;6.946;2023-04-25T03:51:57;8.20;99.90
4615;DHT22;2320;51.362;6.946;2023-04-25T03:54:23;8.10;99.90
4615;DHT22;2320;51.362;6.946;2023-04-25T03:56:48;8.10;99.90
4615;DHT22;2320;51.362;6.946;2023-04-25T03:59:14;8.20;99.90
4615;DHT22;2320;51.362;6.946;2023-04-25T04:01:39;8.20;99.90
4615;DHT22;2320;51.362;6.946;2023-04-25T04:04:05;8.20;99.90
4615;DHT22;2320;51.362;6.946;2023-04-25T04:06:30;8.20;99.90
4615;DHT22;2320;51.362;6.946;2023-04-25T04:08:56;8.20;99.90
4615;DHT22;2320;51.362;6.946;2023-04-25T04:11:21;8.10;99.90
4615;DHT22;2320;51.362;6.946;2023-04-25T04:13:47;8.30;99.90
4615;DHT22;2320;51.362;6.946;2023-04-25T04:16:12;8.30;99.90
4615;DHT22;2320;51.362;6.946;2023-04-25T04:18:38;8.30;99.90
4615;DHT22;2320;51.362;6.946;2023-04-25T04:21:03;8.20;99.90
4615;DHT22;2320;51.362;6.946;2023-04-25T04:23:29;8.20;99.90
4615;DHT22;2320;51.362;6.946;2023-04-25T04:25:54;8.20;99.90
4615;DHT22;2320;51.362;6.946;2023-04-25T04:28:20;8.10;99.90
4615;DHT22;2320;51.362;6.946;2023-04-25T04:30:47;8.20;99.90
4615;DHT22;2320;51.362;6.946;2023-04-25T04:33:12;8.10;99.90
4615;DHT22;2320;51.362;6.946;2023-04-25T04:35:38;8.00;99.90
4615;DHT22;2320;51.362;6.946;2023-04-25T04:38:04;8.00;99.90
4615;DHT22;2320;51.362;6.946;2023-04-25T04:40:30;8.10;99.90
4615;DHT22;2320;51.362;6.946;2023-04-25T04:42:56;8.20;99.90
4615;DHT22;2320;51.362;6.946;2023-04-25T04:45:22;8.30;99.90
4615;DHT22;2320;51.362;6.946;2023-04-25T04:47:49;8.20;99.90
4615;DHT22;2320;51.362;6.946;2023-04-25T04:50:14;8.20;99.90
4615;DHT22;2320;51.362;6.946;2023-04-25T04:52:40;8.20;99.90
4615;DHT22;2320;51.362;6.946;2023-04-25T04:55:05;8.20;99.90
4615;DHT22;2320;51.362;6.946;2023-04-25T04:57:31;8.20;99.90
4615;DHT22;2320;51.362;6.946;2023-04-25T04:59:58;8.30;99.90
4615;DHT22;2320;51.362;6.946;2023-04-25T05:02:24;8.20;99.90
4615;DHT22;2320;51.362;6.946;2023-04-25T05:04:49;8.20;99.90
4615;DHT22;2320;51.362;6.946;2023-04-25T05:07:17;8.20;99.90
4615;DHT22;2320;51.362;6.946;2023-04-25T05:09:42;8.30;99.90
4615;DHT22;2320;51.362;6.946;2023-04-25T05:12:07;8.30;99.90
4615;DHT22;2320;51.362;6.946;2023-04-25T05:14:33;8.30;99.90
4615;DHT22;2320;51.362;6.946;2023-04-25T05:16:58;8.30;99.90
4615;DHT22;2320;51.362;6.946;2023-04-25T05:19:24;8.40;99.90
4615;DHT22;2320;51.362;6.946;2023-04-25T05:21:50;8.30;99.90
4615;DHT22;2320;51.362;6.946;2023-04-25T05:24:15;8.40;99.90
4615;DHT22;2320;51.362;6.946;2023-04-25T05:26:43;8.50;99.90
4615;DHT22;2320;51.362;6.946;2023-04-25T05:29:08;8.40;99.90
4615;DHT22;2320;51.362;6.946;2023-04-25T05:31:34;8.40;99.90
4615;DHT22;2320;51.362;6.946;2023-04-25T05:33:59;8.70;99.90
4615;DHT22;2320;51.362;6.946;2023-04-25T05:36:25;9.00;99.90
4615;DHT22;2320;51.362;6.946;2023-04-25T05:38:51;9.40;99.90
4615;DHT22;2320;51.362;6.946;2023-04-25T05:41:16;10.00;99.90
4615;DHT22;2320;51.362;6.946;2023-04-25T05:43:42;10.50;99.90
4615;DHT22;2320;51.362;6.946;2023-04-25T05:46:12;10.60;99.90
4615;DHT22;2320;51.362;6.946;2023-04-25T05:48:39;10.70;99.90
4615;DHT22;2320;51.362;6.946;2023-04-25T05:51:05;10.70;99.90
4615;DHT22;2320;51.362;6.946;2023-04-25T05:53:30;10.70;99.90
4615;DHT22;2320;51.362;6.946;2023-04-25T05:55:56;10.60;99.90
4615;DHT22;2320;51.362;6.946;2023-04-25T05:58:21;10.60;99.90
4615;DHT22;2320;51.362;6.946;2023-04-25T06:00:47;10.70;99.90
4615;DHT22;2320;51.362;6.946;2023-04-25T06:03:12;10.70;99.90
4615;DHT22;2320;51.362;6.946;2023-04-25T06:05:41;10.60;99.90
4615;DHT22;2320;51.362;6.946;2023-04-25T06:08:07;10.70;99.90
4615;DHT22;2320;51.362;6.946;2023-04-25T06:10:32;10.60;99.90
4615;DHT22;2320;51.362;6.946;2023-04-25T06:12:58;10.50;99.90
4615;DHT22;2320;51.362;6.946;2023-04-25T06:15:23;10.60;99.90
4615;DHT22;2320;51.362;6.946;2023-04-25T06:17:49;10.60;99.90
4615;DHT22;2320;51.362;6.946;2023-04-25T06:20:14;10.70;99.90
4615;DHT22;2320;51.362;6.946;2023-04-25T06:22:40;10.70;99.90
4615;DHT22;2320;51.362;6.946;2023-04-25T06:25:05;10.80;99.90
4615;DHT22;2320;51.362;6.946;2023-04-25T06:27:32;11.20;99.90
4615;DHT22;2320;51.362;6.946;2023-04-25T06:29:58;12.30;99.90
4615;DHT22;2320;51.362;6.946;2023-04-25T06:32:24;13.60;99.90
4615;DHT22;2320;51.362;6.946;2023-04-25T06:34:49;14.30;99.90
4615;DHT22;2320;51.362;6.946;2023-04-25T06:37:15;15.30;99.90
4615;DHT22;2320;51.362;6.946;2023-04-25T06:39:42;16.70;99.90
4615;DHT22;2320;51.362;6.946;2023-04-25T06:42:07;17.30;99.90
4615;DHT22;2320;51.362;6.946;2023-04-25T06:44:33;17.90;99.90
4615;DHT22;2320;51.362;6.946;2023-04-25T06:46:59;18.70;99.90
4615;DHT22;2320;51.362;6.946;2023-04-25T06:49:24;18.80;99.90
4615;DHT22;2320;51.362;6.946;2023-04-25T06:51:50;19.90;99.90
4615;DHT22;2320;51.362;6.946;2023-04-25T06:54:15;20.50;99.90
4615;DHT22;2320;51.362;6.946;2023-04-25T06:56:41;20.90;99.90
4615;DHT22;2320;51.362;6.946;2023-04-25T06:59:06;21.80;99.90
4615;DHT22;2320;51.362;6.946;2023-04-25T07:01:32;22.40;99.90
4615;DHT22;2320;51.362;6.946;2023-04-25T07:03:57;22.40;99.90
4615;DHT22;2320;51.362;6.946;2023-04-25T07:06:23;21.60;96.90
4615;DHT22;2320;51.362;6.946;2023-04-25T07:08:50;19.10;97.70
4615;DHT22;2320;51.362;6.946;2023-04-25T07:11:16;17.70;99.90
4615;DHT22;2320;51.362;6.946;2023-04-25T07:13:41;16.80;99.90
4615;DHT22;2320;51.362;6.946;2023-04-25T07:16:07;16.00;99.90
4615;DHT22;2320;51.362;6.946;2023-04-25T07:18:32;15.20;99.90
4615;DHT22;2320;51.362;6.946;2023-04-25T07:20:58;14.50;99.90
4615;DHT22;2320;51.362;6.946;2023-04-25T07:23:23;14.10;99.90
4615;DHT22;2320;51.362;6.946;2023-04-25T07:25:49;13.90;99.90
4615;DHT22;2320;51.362;6.946;2023-04-25T07:28:14;13.80;99.90
4615;DHT22;2320;51.362;6.946;2023-04-25T07:30:40;13.80;99.90
4615;DHT22;2320;51.362;6.946;2023-04-25T07:33:05;13.70;99.90
4615;DHT22;2320;51.362;6.946;2023-04-25T07:35:31;13.40;99.90
4615;DHT22;2320;51.362;6.946;2023-04-25T07:37:57;13.30;99.90
4615;DHT22;2320;51.362;6.946;2023-04-25T07:40:22;13.20;99.90
4615;DHT22;2320;51.362;6.946;2023-04-25T07:42:48;13.40;99.90
4615;DHT22;2320;51.362;6.946;2023-04-25T07:45:13;13.50;99.90
4615;DHT22;2320;51.362;6.946;2023-04-25T07:47:39;13.10;99.90
4615;DHT22;2320;51.362;6.946;2023-04-25T07:50:04;13.70;99.90
4615;DHT22;2320;51.362;6.946;2023-04-25T07:52:31;15.60;99.90
4615;DHT22;2320;51.362;6.946;2023-04-25T07:54:56;16.90;99.90
4615;DHT22;2320;51.362;6.946;2023-04-25T07:57:23;18.10;99.90
4615;DHT22;2320;51.362;6.946;2023-04-25T07:59:49;19.40;99.90
4615;DHT22;2320;51.362;6.946;2023-04-25T08:02:15;19.30;99.90
4615;DHT22;2320;51.362;6.946;2023-04-25T08:04:40;18.60;99.90
4615;DHT22;2320;51.362;6.946;2023-04-25T08:07:06;17.90;99.90
4615;DHT22;2320;51.362;6.946;2023-04-25T08:09:31;18.10;99.90
4615;DHT22;2320;51.362;6.946;2023-04-25T08:12:00;17.90;99.90
4615;DHT22;2320;51.362;6.946;2023-04-25T08:14:26;18.00;99.90
4615;DHT22;2320;51.362;6.946;2023-04-25T08:16:51;17.50;99.90
4615;DHT22;2320;51.362;6.946;2023-04-25T08:19:17;17.90;99.90
4615;DHT22;2320;51.362;6.946;2023-04-25T08:21:42;18.40;99.90
4615;DHT22;2320;51.362;6.946;2023-04-25T08:24:08;18.90;99.90
4615;DHT22;2320;51.362;6.946;2023-04-25T08:26:33;18.70;99.90
4615;DHT22;2320;51.362;6.946;2023-04-25T08:28:59;18.00;98.90
4615;DHT22;2320;51.362;6.946;2023-04-25T08:31:25;17.50;99.90
4615;DHT22;2320;51.362;6.946;2023-04-25T08:33:52;16.80;99.90
4615;DHT22;2320;51.362;6.946;2023-04-25T08:36:17;16.50;99.90
4615;DHT22;2320;51.362;6.946;2023-04-25T08:38:43;16.10;99.90
4615;DHT22;2320;51.362;6.946;2023-04-25T08:41:09;16.30;99.90
4615;DHT22;2320;51.362;6.946;2023-04-25T08:43:36;16.70;99.90
4615;DHT22;2320;51.362;6.946;2023-04-25T08:46:02;17.90;99.90
4615;DHT22;2320;51.362;6.946;2023-04-25T08:48:28;18.90;99.90
4615;DHT22;2320;51.362;6.946;2023-04-25T08:50:57;20.00;98.90
4615;DHT22;2320;51.362;6.946;2023-04-25T08:53:27;20.90;96.10
4615;DHT22;2320;51.362;6.946;2023-04-25T08:55:56;20.60;91.40
4615;DHT22;2320;51.362;6.946;2023-04-25T08:58:22;19.50;91.90
4615;DHT22;2320;51.362;6.946;2023-04-25T09:00:48;18.70;93.10
4615;DHT22;2320;51.362;6.946;2023-04-25T09:03:15;18.00;93.30
4615;DHT22;2320;51.362;6.946;2023-04-25T09:05:41;17.30;95.90
4615;DHT22;2320;51.362;6.946;2023-04-25T09:08:06;16.90;98.30
4615;DHT22;2320;51.362;6.946;2023-04-25T09:10:32;16.50;97.40
4615;DHT22;2320;51.362;6.946;2023-04-25T09:15:30;16.00;99.60
4615;DHT22;2320;51.362;6.946;2023-04-25T09:17:56;16.10;99.90
4615;DHT22;2320;51.362;6.946;2023-04-25T09:20:22;15.90;99.90
4615;DHT22;2320;51.362;6.946;2023-04-25T09:22:47;15.90;99.90
4615;DHT22;2320;51.362;6.946;2023-04-25T09:25:13;16.10;99.90
4615;DHT22;2320;51.362;6.946;2023-04-25T09:27:51;16.50;99.90
4615;DHT22;2320;51.362;6.946;2023-04-25T09:30:17;16.30;98.60
4615;DHT22;2320;51.362;6.946;2023-04-25T09:32:43;16.90;99.90
4615;DHT22;2320;51.362;6.946;2023-04-25T09:35:08;17.70;99.10
4615;DHT22;2320;51.362;6.946;2023-04-25T09:37:34;18.80;94.60
4615;DHT22;2320;51.362;6.946;2023-04-25T09:40:00;19.60;94.10
4615;DHT22;2320;51.362;6.946;2023-04-25T09:42:31;20.10;92.30
4615;DHT22;2320;51.362;6.946;2023-04-25T09:44:57;20.00;89.60
4615;DHT22;2320;51.362;6.946;2023-04-25T09:47:23;20.50;83.50
4615;DHT22;2320;51.362;6.946;2023-04-25T09:49:50;20.90;85.90
4615;DHT22;2320;51.362;6.946;2023-04-25T09:52:16;21.30;82.60
4615;DHT22;2320;51.362;6.946;2023-04-25T09:54:42;20.40;83.90
4615;DHT22;2320;51.362;6.946;2023-04-25T09:57:13;19.60;85.60
4615;DHT22;2320;51.362;6.946;2023-04-25T09:59:39;18.60;84.60
4615;DHT22;2320;51.362;6.946;2023-04-25T10:02:06;17.90;85.20
4615;DHT22;2320;51.362;6.946;2023-04-25T10:04:32;17.30;90.00
4615;DHT22;2320;51.362;6.946;2023-04-25T10:06:59;16.90;90.00
4615;DHT22;2320;51.362;6.946;2023-04-25T10:09:25;16.70;90.50
4615;DHT22;2320;51.362;6.946;2023-04-25T10:11:51;16.50;91.20
4615;DHT22;2320;51.362;6.946;2023-04-25T10:14:17;16.60;91.80
4615;DHT22;2320;51.362;6.946;2023-04-25T10:16:43;16.40;90.80
4615;DHT22;2320;51.362;6.946;2023-04-25T10:19:10;16.60;90.30
4615;DHT22;2320;51.362;6.946;2023-04-25T10:22:23;16.30;88.50
4615;DHT22;2320;51.362;6.946;2023-04-25T10:24:22;16.30;89.40
4615;DHT22;2320;51.362;6.946;2023-04-25T10:26:48;16.30;92.60
4615;DHT22;2320;51.362;6.946;2023-04-25T10:29:21;16.30;91.80
4615;DHT22;2320;51.362;6.946;2023-04-25T10:31:46;16.80;91.90
4615;DHT22;2320;51.362;6.946;2023-04-25T10:34:12;17.90;91.50
4615;DHT22;2320;51.362;6.946;2023-04-25T10:36:38;19.10;86.50
4615;DHT22;2320;51.362;6.946;2023-04-25T10:39:04;20.10;80.20
4615;DHT22;2320;51.362;6.946;2023-04-25T10:41:47;19.70;79.50
4615;DHT22;2320;51.362;6.946;2023-04-25T10:44:13;19.30;77.10
4615;DHT22;2320;51.362;6.946;2023-04-25T10:46:39;20.20;78.30
4615;DHT22;2320;51.362;6.946;2023-04-25T10:49:04;20.80;76.80
4615;DHT22;2320;51.362;6.946;2023-04-25T10:51:33;21.80;74.00
4615;DHT22;2320;51.362;6.946;2023-04-25T10:54:06;21.70;68.80
4615;DHT22;2320;51.362;6.946;2023-04-25T10:56:33;21.60;69.60
4615;DHT22;2320;51.362;6.946;2023-04-25T11:01:42;21.40;74.70
4615;DHT22;2320;51.362;6.946;2023-04-25T11:06:51;20.20;71.60
4615;DHT22;2320;51.362;6.946;2023-04-25T11:09:20;18.30;69.80
4615;DHT22;2320;51.362;6.946;2023-04-25T11:11:57;17.50;72.40
4615;DHT22;2320;51.362;6.946;2023-04-25T11:14:23;16.50;73.70
4615;DHT22;2320;51.362;6.946;2023-04-25T11:16:52;15.90;78.80
4615;DHT22;2320;51.362;6.946;2023-04-25T11:19:19;14.80;84.60
4615;DHT22;2320;51.362;6.946;2023-04-25T11:21:45;13.90;94.60
4615;DHT22;2320;51.362;6.946;2023-04-25T11:24:10;13.10;99.90
4615;DHT22;2320;51.362;6.946;2023-04-25T11:26:36;12.80;99.90
4615;DHT22;2320;51.362;6.946;2023-04-25T11:29:02;12.70;99.90
4615;DHT22;2320;51.362;6.946;2023-04-25T11:31:28;12.60;99.90
4615;DHT22;2320;51.362;6.946;2023-04-25T11:33:56;12.80;99.90
4615;DHT22;2320;51.362;6.946;2023-04-25T11:36:22;12.80;99.90
4615;DHT22;2320;51.362;6.946;2023-04-25T11:38:48;12.90;99.90
4615;DHT22;2320;51.362;6.946;2023-04-25T11:41:13;12.90;99.90
4615;DHT22;2320;51.362;6.946;2023-04-25T11:43:39;13.30;99.90
4615;DHT22;2320;51.362;6.946;2023-04-25T11:46:07;13.40;99.90
4615;DHT22;2320;51.362;6.946;2023-04-25T11:48:39;13.40;99.90
4615;DHT22;2320;51.362;6.946;2023-04-25T11:51:05;13.20;99.90
4615;DHT22;2320;51.362;6.946;2023-04-25T11:53:31;13.20;99.90
4615;DHT22;2320;51.362;6.946;2023-04-25T11:55:56;13.20;99.90
4615;DHT22;2320;51.362;6.946;2023-04-25T11:58:22;13.20;99.90
4615;DHT22;2320;51.362;6.946;2023-04-25T12:00:48;13.40;99.90
4615;DHT22;2320;51.362;6.946;2023-04-25T12:03:13;13.60;99.90
4615;DHT22;2320;51.362;6.946;2023-04-25T12:05:39;13.90;99.90
4615;DHT22;2320;51.362;6.946;2023-04-25T12:08:15;13.90;99.90
4615;DHT22;2320;51.362;6.946;2023-04-25T12:10:41;14.00;99.90
4615;DHT22;2320;51.362;6.946;2023-04-25T12:13:23;13.50;99.90
4615;DHT22;2320;51.362;6.946;2023-04-25T12:15:49;13.40;99.90
4615;DHT22;2320;51.362;6.946;2023-04-25T12:18:18;13.30;99.90
4615;DHT22;2320;51.362;6.946;2023-04-25T12:20:43;13.20;99.90
4615;DHT22;2320;51.362;6.946;2023-04-25T12:23:09;13.10;99.90
4615;DHT22;2320;51.362;6.946;2023-04-25T12:25:39;12.70;99.90
4615;DHT22;2320;51.362;6.946;2023-04-25T12:28:17;12.10;99.90
4615;DHT22;2320;51.362;6.946;2023-04-25T12:30:58;11.70;99.90
4615;DHT22;2320;51.362;6.946;2023-04-25T12:33:25;11.50;99.90
4615;DHT22;2320;51.362;6.946;2023-04-25T12:35:52;11.50;99.90
4615;DHT22;2320;51.362;6.946;2023-04-25T12:38:21;11.60;99.90
4615;DHT22;2320;51.362;6.946;2023-04-25T12:40:46;11.50;99.90
4615;DHT22;2320;51.362;6.946;2023-04-25T12:43:12;11.70;99.90
4615;DHT22;2320;51.362;6.946;2023-04-25T12:45:37;11.80;99.90
4615;DHT22;2320;51.362;6.946;2023-04-25T12:48:03;12.10;99.90
4615;DHT22;2320;51.362;6.946;2023-04-25T12:50:28;12.50;99.90
4615;DHT22;2320;51.362;6.946;2023-04-25T12:52:54;12.90;99.90
4615;DHT22;2320;51.362;6.946;2023-04-25T12:55:19;13.10;99.90
4615;DHT22;2320;51.362;6.946;2023-04-25T12:57:45;13.30;99.90
4615;DHT22;2320;51.362;6.946;2023-04-25T13:00:11;13.50;99.90
4615;DHT22;2320;51.362;6.946;2023-04-25T13:02:40;13.40;99.90
4615;DHT22;2320;51.362;6.946;2023-04-25T13:05:06;13.30;99.90
4615;DHT22;2320;51.362;6.946;2023-04-25T13:07:31;13.50;99.90
4615;DHT22;2320;51.362;6.946;2023-04-25T13:09:57;13.60;99.90
4615;DHT22;2320;51.362;6.946;2023-04-25T13:12:22;13.70;99.90
4615;DHT22;2320;51.362;6.946;2023-04-25T13:14:48;13.60;99.90
4615;DHT22;2320;51.362;6.946;2023-04-25T13:17:13;13.50;99.90
4615;DHT22;2320;51.362;6.946;2023-04-25T13:19:39;13.40;99.90
4615;DHT22;2320;51.362;6.946;2023-04-25T13:22:04;13.40;99.90
4615;DHT22;2320;51.362;6.946;2023-04-25T13:24:30;13.40;99.90
4615;DHT22;2320;51.362;6.946;2023-04-25T13:26:56;13.20;99.90
4615;DHT22;2320;51.362;6.946;2023-04-25T13:29:21;12.90;99.90
4615;DHT22;2320;51.362;6.946;2023-04-25T13:31:47;12.50;99.90
4615;DHT22;2320;51.362;6.946;2023-04-25T13:34:12;12.20;99.90
4615;DHT22;2320;51.362;6.946;2023-04-25T13:36:38;11.60;99.90
4615;DHT22;2320;51.362;6.946;2023-04-25T13:39:03;11.30;99.90
4615;DHT22;2320;51.362;6.946;2023-04-25T13:41:30;11.10;99.90
4615;DHT22;2320;51.362;6.946;2023-04-25T13:43:55;11.00;99.90
4615;DHT22;2320;51.362;6.946;2023-04-25T13:46:21;11.00;99.90
4615;DHT22;2320;51.362;6.946;2023-04-25T13:48:46;10.70;99.90
4615;DHT22;2320;51.362;6.946;2023-04-25T13:51:14;10.60;99.90
4615;DHT22;2320;51.362;6.946;2023-04-25T13:53:40;10.60;99.90
4615;DHT22;2320;51.362;6.946;2023-04-25T13:56:06;10.50;99.90
4615;DHT22;2320;51.362;6.946;2023-04-25T13:58:31;10.50;99.90
4615;DHT22;2320;51.362;6.946;2023-04-25T14:00:58;10.70;99.90
4615;DHT22;2320;51.362;6.946;2023-04-25T14:03:23;10.60;99.90
4615;DHT22;2320;51.362;6.946;2023-04-25T14:05:49;10.70;99.90
4615;DHT22;2320;51.362;6.946;2023-04-25T14:08:14;10.80;99.90
4615;DHT22;2320;51.362;6.946;2023-04-25T14:10:40;10.90;99.90
4615;DHT22;2320;51.362;6.946;2023-04-25T14:13:06;10.80;99.90
4615;DHT22;2320;51.362;6.946;2023-04-25T14:15:32;10.70;99.90
4615;DHT22;2320;51.362;6.946;2023-04-25T14:17:57;10.80;99.90
4615;DHT22;2320;51.362;6.946;2023-04-25T14:20:23;10.80;99.90
4615;DHT22;2320;51.362;6.946;2023-04-25T14:22:49;11.00;99.90
4615;DHT22;2320;51.362;6.946;2023-04-25T14:25:14;11.20;99.90
4615;DHT22;2320;51.362;6.946;2023-04-25T14:27:40;11.40;99.90
4615;DHT22;2320;51.362;6.946;2023-04-25T14:30:06;11.50;99.90
4615;DHT22;2320;51.362;6.946;2023-04-25T14:32:32;11.70;99.90
4615;DHT22;2320;51.362;6.946;2023-04-25T14:34:57;12.10;99.90
4615;DHT22;2320;51.362;6.946;2023-04-25T14:37:23;12.40;99.90
4615;DHT22;2320;51.362;6.946;2023-04-25T14:39:48;12.50;99.90
4615;DHT22;2320;51.362;6.946;2023-04-25T14:42:14;12.50;99.90
4615;DHT22;2320;51.362;6.946;2023-04-25T14:44:39;12.60;99.90
4615;DHT22;2320;51.362;6.946;2023-04-25T14:47:05;12.50;99.90
4615;DHT22;2320;51.362;6.946;2023-04-25T14:49:31;12.60;99.90
4615;DHT22;2320;51.362;6.946;2023-04-25T14:51:56;12.70;99.90
4615;DHT22;2320;51.362;6.946;2023-04-25T14:54:22;12.90;99.90
4615;DHT22;2320;51.362;6.946;2023-04-25T14:56:47;13.00;99.90
4615;DHT22;2320;51.362;6.946;2023-04-25T14:59:13;13.20;99.90
4615;DHT22;2320;51.362;6.946;2023-04-25T15:01:38;13.30;99.90
4615;DHT22;2320;51.362;6.946;2023-04-25T15:04:04;13.30;99.90
4615;DHT22;2320;51.362;6.946;2023-04-25T15:06:29;13.30;99.90
4615;DHT22;2320;51.362;6.946;2023-04-25T15:08:55;13.20;99.90
4615;DHT22;2320;51.362;6.946;2023-04-25T15:11:22;12.90;99.90
4615;DHT22;2320;51.362;6.946;2023-04-25T15:13:47;12.80;99.90
4615;DHT22;2320;51.362;6.946;2023-04-25T15:16:13;12.70;99.90
4615;DHT22;2320;51.362;6.946;2023-04-25T15:18:39;12.60;99.90
4615;DHT22;2320;51.362;6.946;2023-04-25T15:21:04;12.50;99.90
4615;DHT22;2320;51.362;6.946;2023-04-25T15:23:30;12.50;99.90
4615;DHT22;2320;51.362;6.946;2023-04-25T15:25:56;12.50;99.90
4615;DHT22;2320;51.362;6.946;2023-04-25T15:28:21;12.70;99.90
4615;DHT22;2320;51.362;6.946;2023-04-25T15:30:47;12.70;99.90
4615;DHT22;2320;51.362;6.946;2023-04-25T15:33:12;12.60;99.90
4615;DHT22;2320;51.362;6.946;2023-04-25T15:35:38;12.50;99.90
4615;DHT22;2320;51.362;6.946;2023-04-25T15:38:04;12.40;99.90
4615;DHT22;2320;51.362;6.946;2023-04-25T15:40:30;12.10;99.90
4615;DHT22;2320;51.362;6.946;2023-04-25T15:42:55;12.00;99.90
4615;DHT22;2320;51.362;6.946;2023-04-25T15:45:22;12.00;99.90
4615;DHT22;2320;51.362;6.946;2023-04-25T15:47:50;12.00;99.90
4615;DHT22;2320;51.362;6.946;2023-04-25T15:50:17;12.00;99.90
4615;DHT22;2320;51.362;6.946;2023-04-25T15:52:43;11.80;99.90
4615;DHT22;2320;51.362;6.946;2023-04-25T15:55:08;11.70;99.90
4615;DHT22;2320;51.362;6.946;2023-04-25T15:57:34;11.70;99.90
4615;DHT22;2320;51.362;6.946;2023-04-25T16:00:04;11.80;99.90
4615;DHT22;2320;51.362;6.946;2023-04-25T16:02:32;11.80;99.90
4615;DHT22;2320;51.362;6.946;2023-04-25T16:04:57;11.80;99.90
4615;DHT22;2320;51.362;6.946;2023-04-25T16:07:23;11.80;99.90